Terminal Aerodrome Forecast
Issued by NWS

Home | Current Version | Previous Version | Text Only | Print | Product List | Glossary On
Versions: 1 2 3 4 5 6 7 8 9 10 11 12 13 14
000
FTUS42 KMLB 170520
TAFISM
TAF
KISM 170520Z 1706/1806 00000KT P6SM FEW250
     FM171400 20004KT P6SM FEW030 SCT250
     FM172000 17008KT P6SM VCTS SCT040CB BKN100
     FM180000 VRB04KT P6SM FEW035 SCT150 BKN250=

USA.gov is the U.S. government's official web portal to all federal, state and local government web resources and services.